sensor_id;sensor_type;location;lat;lon;timestamp;temperature;humidity
16388;DHT22;8303;53.446;9.988;2022-12-18T00:00:45;-5.70;1.00
16388;DHT22;8303;53.446;9.988;2022-12-18T00:03:14;-5.80;1.00
16388;DHT22;8303;53.446;9.988;2022-12-18T00:05:46;-5.90;1.00
16388;DHT22;8303;53.446;9.988;2022-12-18T00:08:14;-5.90;1.00
16388;DHT22;8303;53.446;9.988;2022-12-18T00:10:43;-6.00;1.00
16388;DHT22;8303;53.446;9.988;2022-12-18T00:13:09;-5.90;1.00
16388;DHT22;8303;53.446;9.988;2022-12-18T00:15:37;-5.90;1.00
16388;DHT22;8303;53.446;9.988;2022-12-18T00:18:05;-6.00;1.00
16388;DHT22;8303;53.446;9.988;2022-12-18T00:20:35;-6.00;1.00
16388;DHT22;8303;53.446;9.988;2022-12-18T00:23:02;-6.00;1.00
16388;DHT22;8303;53.446;9.988;2022-12-18T00:25:29;-6.00;1.00
16388;DHT22;8303;53.446;9.988;2022-12-18T00:27:58;-6.00;1.00
16388;DHT22;8303;53.446;9.988;2022-12-18T00:30:24;-6.00;1.00
16388;DHT22;8303;53.446;9.988;2022-12-18T00:32:51;-6.00;1.00
16388;DHT22;8303;53.446;9.988;2022-12-18T00:35:18;-6.00;1.00
16388;DHT22;8303;53.446;9.988;2022-12-18T00:37:45;-6.00;1.00
16388;DHT22;8303;53.446;9.988;2022-12-18T00:40:12;-6.10;1.00
16388;DHT22;8303;53.446;9.988;2022-12-18T00:42:40;-6.10;1.00
16388;DHT22;8303;53.446;9.988;2022-12-18T00:45:22;-6.10;1.00
16388;DHT22;8303;53.446;9.988;2022-12-18T00:47:49;-6.10;1.00
16388;DHT22;8303;53.446;9.988;2022-12-18T00:50:16;-6.10;1.00
16388;DHT22;8303;53.446;9.988;2022-12-18T00:52:43;-6.20;1.00
16388;DHT22;8303;53.446;9.988;2022-12-18T00:55:11;-6.20;1.00
16388;DHT22;8303;53.446;9.988;2022-12-18T00:57:38;-6.20;1.00
16388;DHT22;8303;53.446;9.988;2022-12-18T01:00:07;-6.30;1.00
16388;DHT22;8303;53.446;9.988;2022-12-18T01:02:35;-6.30;1.00
16388;DHT22;8303;53.446;9.988;2022-12-18T01:05:03;-6.40;1.00
16388;DHT22;8303;53.446;9.988;2022-12-18T01:07:30;-6.40;1.00
16388;DHT22;8303;53.446;9.988;2022-12-18T01:09:57;-6.40;1.00
16388;DHT22;8303;53.446;9.988;2022-12-18T01:12:24;-6.40;1.00
16388;DHT22;8303;53.446;9.988;2022-12-18T01:14:50;-6.40;1.00
16388;DHT22;8303;53.446;9.988;2022-12-18T01:17:17;-6.40;1.00
16388;DHT22;8303;53.446;9.988;2022-12-18T01:19:45;-6.40;1.00
16388;DHT22;8303;53.446;9.988;2022-12-18T01:22:13;-6.40;1.00
16388;DHT22;8303;53.446;9.988;2022-12-18T01:24:40;-6.40;1.00
16388;DHT22;8303;53.446;9.988;2022-12-18T01:27:07;-6.40;1.00
16388;DHT22;8303;53.446;9.988;2022-12-18T01:29:34;-6.40;1.00
16388;DHT22;8303;53.446;9.988;2022-12-18T01:32:01;-6.40;1.00
16388;DHT22;8303;53.446;9.988;2022-12-18T01:34:28;-6.40;1.00
16388;DHT22;8303;53.446;9.988;2022-12-18T01:36:56;-6.40;1.00
16388;DHT22;8303;53.446;9.988;2022-12-18T01:39:23;-6.40;1.00
16388;DHT22;8303;53.446;9.988;2022-12-18T01:41:50;-6.40;1.00
16388;DHT22;8303;53.446;9.988;2022-12-18T01:45:06;-6.40;1.00
16388;DHT22;8303;53.446;9.988;2022-12-18T01:47:38;-6.50;1.00
16388;DHT22;8303;53.446;9.988;2022-12-18T01:50:10;-6.50;1.00
16388;DHT22;8303;53.446;9.988;2022-12-18T01:52:41;-6.60;1.00
16388;DHT22;8303;53.446;9.988;2022-12-18T01:55:10;-6.60;1.00
16388;DHT22;8303;53.446;9.988;2022-12-18T01:57:38;-6.70;1.00
16388;DHT22;8303;53.446;9.988;2022-12-18T02:00:08;-6.70;1.00
16388;DHT22;8303;53.446;9.988;2022-12-18T02:02:35;-6.70;1.00
16388;DHT22;8303;53.446;9.988;2022-12-18T02:05:03;-6.80;1.00
16388;DHT22;8303;53.446;9.988;2022-12-18T02:07:40;-6.80;1.00
16388;DHT22;8303;53.446;9.988;2022-12-18T02:10:14;-6.80;1.00
16388;DHT22;8303;53.446;9.988;2022-12-18T02:12:45;-6.80;1.00
16388;DHT22;8303;53.446;9.988;2022-12-18T02:15:18;-6.80;1.00
16388;DHT22;8303;53.446;9.988;2022-12-18T02:17:50;-6.80;1.00
16388;DHT22;8303;53.446;9.988;2022-12-18T02:20:23;-6.70;1.00
16388;DHT22;8303;53.446;9.988;2022-12-18T02:23:10;-6.80;1.00
16388;DHT22;8303;53.446;9.988;2022-12-18T02:26:01;-6.80;1.00
16388;DHT22;8303;53.446;9.988;2022-12-18T02:28:34;-6.80;1.00
16388;DHT22;8303;53.446;9.988;2022-12-18T02:31:04;-6.90;1.00
16388;DHT22;8303;53.446;9.988;2022-12-18T02:33:33;-6.90;1.00
16388;DHT22;8303;53.446;9.988;2022-12-18T02:36:02;-6.90;1.00
16388;DHT22;8303;53.446;9.988;2022-12-18T02:38:29;-6.90;1.00
16388;DHT22;8303;53.446;9.988;2022-12-18T02:40:57;-6.90;1.00
16388;DHT22;8303;53.446;9.988;2022-12-18T02:43:26;-6.80;1.00
16388;DHT22;8303;53.446;9.988;2022-12-18T02:45:55;-6.90;1.00
16388;DHT22;8303;53.446;9.988;2022-12-18T02:48:27;-6.80;1.00
16388;DHT22;8303;53.446;9.988;2022-12-18T02:50:59;-6.80;1.00
16388;DHT22;8303;53.446;9.988;2022-12-18T02:53:32;-6.90;1.00
16388;DHT22;8303;53.446;9.988;2022-12-18T02:56:06;-6.90;1.00
16388;DHT22;8303;53.446;9.988;2022-12-18T02:58:41;-6.90;1.00
16388;DHT22;8303;53.446;9.988;2022-12-18T03:01:15;-6.90;1.00
16388;DHT22;8303;53.446;9.988;2022-12-18T03:03:47;-6.80;1.00
16388;DHT22;8303;53.446;9.988;2022-12-18T03:06:22;-6.80;1.00
16388;DHT22;8303;53.446;9.988;2022-12-18T03:08:54;-6.80;1.00
16388;DHT22;8303;53.446;9.988;2022-12-18T03:11:23;-6.80;1.00
16388;DHT22;8303;53.446;9.988;2022-12-18T03:14:07;-6.90;1.00
16388;DHT22;8303;53.446;9.988;2022-12-18T03:16:36;-6.90;1.00
16388;DHT22;8303;53.446;9.988;2022-12-18T03:19:07;-6.90;1.00
16388;DHT22;8303;53.446;9.988;2022-12-18T03:21:38;-6.90;1.00
16388;DHT22;8303;53.446;9.988;2022-12-18T03:24:08;-6.90;1.00
16388;DHT22;8303;53.446;9.988;2022-12-18T03:26:37;-7.00;1.00
16388;DHT22;8303;53.446;9.988;2022-12-18T03:29:11;-7.00;1.00
16388;DHT22;8303;53.446;9.988;2022-12-18T03:31:40;-7.00;1.00
16388;DHT22;8303;53.446;9.988;2022-12-18T03:34:13;-7.00;1.00
16388;DHT22;8303;53.446;9.988;2022-12-18T03:36:41;-7.10;1.00
16388;DHT22;8303;53.446;9.988;2022-12-18T03:39:08;-7.10;1.00
16388;DHT22;8303;53.446;9.988;2022-12-18T03:41:41;-7.20;1.00
16388;DHT22;8303;53.446;9.988;2022-12-18T03:44:12;-7.10;1.00
16388;DHT22;8303;53.446;9.988;2022-12-18T03:46:46;-7.10;1.00
16388;DHT22;8303;53.446;9.988;2022-12-18T03:49:18;-7.10;1.00
16388;DHT22;8303;53.446;9.988;2022-12-18T03:51:52;-7.20;1.00
16388;DHT22;8303;53.446;9.988;2022-12-18T03:54:20;-7.30;1.00
16388;DHT22;8303;53.446;9.988;2022-12-18T03:56:51;-7.30;1.00
16388;DHT22;8303;53.446;9.988;2022-12-18T03:59:23;-7.30;1.00
16388;DHT22;8303;53.446;9.988;2022-12-18T04:01:52;-7.40;1.00
16388;DHT22;8303;53.446;9.988;2022-12-18T04:04:21;-7.40;1.00
16388;DHT22;8303;53.446;9.988;2022-12-18T04:06:50;-7.40;1.00
16388;DHT22;8303;53.446;9.988;2022-12-18T04:09:18;-7.40;1.00
16388;DHT22;8303;53.446;9.988;2022-12-18T04:11:46;-7.40;1.00
16388;DHT22;8303;53.446;9.988;2022-12-18T04:14:14;-7.50;1.00
16388;DHT22;8303;53.446;9.988;2022-12-18T04:16:42;-7.50;1.00
16388;DHT22;8303;53.446;9.988;2022-12-18T04:19:09;-7.50;1.00
16388;DHT22;8303;53.446;9.988;2022-12-18T04:21:36;-7.40;1.00
16388;DHT22;8303;53.446;9.988;2022-12-18T04:24:03;-7.40;1.00
16388;DHT22;8303;53.446;9.988;2022-12-18T04:26:30;-7.40;1.00
16388;DHT22;8303;53.446;9.988;2022-12-18T04:28:57;-7.40;1.00
16388;DHT22;8303;53.446;9.988;2022-12-18T04:31:24;-7.30;1.00
16388;DHT22;8303;53.446;9.988;2022-12-18T04:33:52;-7.30;1.00
16388;DHT22;8303;53.446;9.988;2022-12-18T04:36:19;-7.30;1.00
16388;DHT22;8303;53.446;9.988;2022-12-18T04:38:46;-7.40;1.00
16388;DHT22;8303;53.446;9.988;2022-12-18T04:41:13;-7.30;1.00
16388;DHT22;8303;53.446;9.988;2022-12-18T04:43:40;-7.30;1.00
16388;DHT22;8303;53.446;9.988;2022-12-18T04:46:08;-7.30;1.00
16388;DHT22;8303;53.446;9.988;2022-12-18T04:48:35;-7.30;1.00
16388;DHT22;8303;53.446;9.988;2022-12-18T04:51:04;-7.20;1.00
16388;DHT22;8303;53.446;9.988;2022-12-18T04:53:31;-7.20;1.00
16388;DHT22;8303;53.446;9.988;2022-12-18T04:56:05;-7.10;1.00
16388;DHT22;8303;53.446;9.988;2022-12-18T04:58:33;-7.10;1.00
16388;DHT22;8303;53.446;9.988;2022-12-18T05:01:00;-7.10;1.00
16388;DHT22;8303;53.446;9.988;2022-12-18T05:03:27;-7.20;1.00
16388;DHT22;8303;53.446;9.988;2022-12-18T05:05:54;-7.30;1.00
16388;DHT22;8303;53.446;9.988;2022-12-18T05:08:22;-7.30;1.00
16388;DHT22;8303;53.446;9.988;2022-12-18T05:10:49;-7.30;1.00
16388;DHT22;8303;53.446;9.988;2022-12-18T05:13:16;-7.30;1.00
16388;DHT22;8303;53.446;9.988;2022-12-18T05:15:51;-7.40;99.90
16388;DHT22;8303;53.446;9.988;2022-12-18T05:18:18;-7.40;99.90
16388;DHT22;8303;53.446;9.988;2022-12-18T05:20:45;-7.40;99.90
16388;DHT22;8303;53.446;9.988;2022-12-18T05:23:12;-7.40;99.90
16388;DHT22;8303;53.446;9.988;2022-12-18T05:25:40;-7.40;99.90
16388;DHT22;8303;53.446;9.988;2022-12-18T05:28:07;-7.40;99.90
16388;DHT22;8303;53.446;9.988;2022-12-18T05:30:33;-7.50;99.90
16388;DHT22;8303;53.446;9.988;2022-12-18T05:33:00;-7.50;99.90
16388;DHT22;8303;53.446;9.988;2022-12-18T05:35:27;-7.50;99.90
16388;DHT22;8303;53.446;9.988;2022-12-18T05:37:54;-7.50;99.90
16388;DHT22;8303;53.446;9.988;2022-12-18T05:40:21;-7.50;99.90
16388;DHT22;8303;53.446;9.988;2022-12-18T05:42:49;-7.50;99.90
16388;DHT22;8303;53.446;9.988;2022-12-18T05:45:16;-7.50;99.90
16388;DHT22;8303;53.446;9.988;2022-12-18T05:47:43;-7.40;1.00
16388;DHT22;8303;53.446;9.988;2022-12-18T05:50:10;-7.40;1.00
16388;DHT22;8303;53.446;9.988;2022-12-18T05:52:36;-7.40;99.90
16388;DHT22;8303;53.446;9.988;2022-12-18T05:55:04;-7.40;99.90
16388;DHT22;8303;53.446;9.988;2022-12-18T05:57:30;-7.40;99.90
16388;DHT22;8303;53.446;9.988;2022-12-18T05:59:59;-7.40;99.90
16388;DHT22;8303;53.446;9.988;2022-12-18T06:02:25;-7.40;99.90
16388;DHT22;8303;53.446;9.988;2022-12-18T06:04:52;-7.40;99.90
16388;DHT22;8303;53.446;9.988;2022-12-18T06:07:20;-7.50;99.90
16388;DHT22;8303;53.446;9.988;2022-12-18T06:09:47;-7.50;99.90
16388;DHT22;8303;53.446;9.988;2022-12-18T06:12:14;-7.50;99.90
16388;DHT22;8303;53.446;9.988;2022-12-18T06:14:41;-7.50;99.90
16388;DHT22;8303;53.446;9.988;2022-12-18T06:17:09;-7.50;99.90
16388;DHT22;8303;53.446;9.988;2022-12-18T06:19:36;-7.40;99.90
16388;DHT22;8303;53.446;9.988;2022-12-18T06:22:03;-7.40;1.00
16388;DHT22;8303;53.446;9.988;2022-12-18T06:24:30;-7.40;1.00
16388;DHT22;8303;53.446;9.988;2022-12-18T06:26:57;-7.40;1.00
16388;DHT22;8303;53.446;9.988;2022-12-18T06:29:24;-7.40;1.00
16388;DHT22;8303;53.446;9.988;2022-12-18T06:31:50;-7.30;1.00
16388;DHT22;8303;53.446;9.988;2022-12-18T06:34:19;-7.30;1.00
16388;DHT22;8303;53.446;9.988;2022-12-18T06:36:45;-7.30;1.00
16388;DHT22;8303;53.446;9.988;2022-12-18T06:39:12;-7.30;1.00
16388;DHT22;8303;53.446;9.988;2022-12-18T06:41:39;-7.30;99.90
16388;DHT22;8303;53.446;9.988;2022-12-18T06:44:06;-7.30;99.90
16388;DHT22;8303;53.446;9.988;2022-12-18T06:46:33;-7.40;99.90
16388;DHT22;8303;53.446;9.988;2022-12-18T06:48:59;-7.40;99.90
16388;DHT22;8303;53.446;9.988;2022-12-18T06:51:28;-7.40;99.90
16388;DHT22;8303;53.446;9.988;2022-12-18T06:53:55;-7.30;1.00
16388;DHT22;8303;53.446;9.988;2022-12-18T06:56:22;-7.30;99.90
16388;DHT22;8303;53.446;9.988;2022-12-18T06:58:48;-7.30;99.90
16388;DHT22;8303;53.446;9.988;2022-12-18T07:01:15;-7.30;99.90
16388;DHT22;8303;53.446;9.988;2022-12-18T07:03:42;-7.30;99.90
16388;DHT22;8303;53.446;9.988;2022-12-18T07:06:13;-7.30;99.90
16388;DHT22;8303;53.446;9.988;2022-12-18T07:08:42;-7.40;99.90
16388;DHT22;8303;53.446;9.988;2022-12-18T07:11:09;-7.40;99.90
16388;DHT22;8303;53.446;9.988;2022-12-18T07:13:36;-7.40;99.90
16388;DHT22;8303;53.446;9.988;2022-12-18T07:16:05;-7.40;99.90
16388;DHT22;8303;53.446;9.988;2022-12-18T07:18:32;-7.50;99.90
16388;DHT22;8303;53.446;9.988;2022-12-18T07:21:03;-7.50;99.90
16388;DHT22;8303;53.446;9.988;2022-12-18T07:23:31;-7.60;99.90
16388;DHT22;8303;53.446;9.988;2022-12-18T07:26:02;-7.70;99.90
16388;DHT22;8303;53.446;9.988;2022-12-18T07:28:30;-7.60;99.90
16388;DHT22;8303;53.446;9.988;2022-12-18T07:30:57;-7.60;99.90
16388;DHT22;8303;53.446;9.988;2022-12-18T07:33:24;-7.60;99.90
16388;DHT22;8303;53.446;9.988;2022-12-18T07:35:51;-7.60;99.90
16388;DHT22;8303;53.446;9.988;2022-12-18T07:38:20;-7.60;99.90
16388;DHT22;8303;53.446;9.988;2022-12-18T07:40:47;-7.50;99.90
16388;DHT22;8303;53.446;9.988;2022-12-18T07:43:15;-7.40;99.90
16388;DHT22;8303;53.446;9.988;2022-12-18T07:45:42;-7.40;99.90
16388;DHT22;8303;53.446;9.988;2022-12-18T07:48:09;-7.30;99.90
16388;DHT22;8303;53.446;9.988;2022-12-18T07:50:36;-7.30;99.90
16388;DHT22;8303;53.446;9.988;2022-12-18T07:53:04;-7.20;99.90
16388;DHT22;8303;53.446;9.988;2022-12-18T07:55:31;-7.10;99.90
16388;DHT22;8303;53.446;9.988;2022-12-18T07:58:01;-7.20;99.90
16388;DHT22;8303;53.446;9.988;2022-12-18T08:00:29;-7.10;99.90
16388;DHT22;8303;53.446;9.988;2022-12-18T08:02:56;-7.10;99.90
16388;DHT22;8303;53.446;9.988;2022-12-18T08:05:23;-7.00;99.90
16388;DHT22;8303;53.446;9.988;2022-12-18T08:07:50;-7.00;99.90
16388;DHT22;8303;53.446;9.988;2022-12-18T08:10:18;-7.00;99.90
16388;DHT22;8303;53.446;9.988;2022-12-18T08:12:44;-6.90;99.90
16388;DHT22;8303;53.446;9.988;2022-12-18T08:15:11;-6.80;99.90
16388;DHT22;8303;53.446;9.988;2022-12-18T08:17:39;-6.80;99.90
16388;DHT22;8303;53.446;9.988;2022-12-18T08:20:07;-6.70;99.90
16388;DHT22;8303;53.446;9.988;2022-12-18T08:22:37;-6.60;99.90
16388;DHT22;8303;53.446;9.988;2022-12-18T08:25:05;-6.40;99.90
16388;DHT22;8303;53.446;9.988;2022-12-18T08:27:32;-6.30;99.90
16388;DHT22;8303;53.446;9.988;2022-12-18T08:29:59;-6.20;99.90
16388;DHT22;8303;53.446;9.988;2022-12-18T08:32:27;-6.10;99.90
16388;DHT22;8303;53.446;9.988;2022-12-18T08:34:55;-6.10;99.90
16388;DHT22;8303;53.446;9.988;2022-12-18T08:37:22;-6.00;99.90
16388;DHT22;8303;53.446;9.988;2022-12-18T08:39:49;-5.90;99.90
16388;DHT22;8303;53.446;9.988;2022-12-18T08:42:16;-5.90;99.90
16388;DHT22;8303;53.446;9.988;2022-12-18T08:45:00;-5.80;99.90
16388;DHT22;8303;53.446;9.988;2022-12-18T08:47:27;-5.70;99.90
16388;DHT22;8303;53.446;9.988;2022-12-18T08:49:55;-5.60;99.90
16388;DHT22;8303;53.446;9.988;2022-12-18T08:52:22;-5.40;99.90
16388;DHT22;8303;53.446;9.988;2022-12-18T08:54:50;-5.00;99.90
16388;DHT22;8303;53.446;9.988;2022-12-18T08:57:16;-5.00;99.90
16388;DHT22;8303;53.446;9.988;2022-12-18T08:59:43;-5.00;99.90
16388;DHT22;8303;53.446;9.988;2022-12-18T09:02:10;-4.90;99.90
16388;DHT22;8303;53.446;9.988;2022-12-18T09:04:37;-4.80;99.90
16388;DHT22;8303;53.446;9.988;2022-12-18T09:07:06;-4.90;99.90
16388;DHT22;8303;53.446;9.988;2022-12-18T09:09:35;-5.00;99.90
16388;DHT22;8303;53.446;9.988;2022-12-18T09:12:03;-5.00;99.90
16388;DHT22;8303;53.446;9.988;2022-12-18T09:14:29;-5.00;99.90
16388;DHT22;8303;53.446;9.988;2022-12-18T09:16:56;-5.00;1.00
16388;DHT22;8303;53.446;9.988;2022-12-18T09:19:23;-5.10;1.00
16388;DHT22;8303;53.446;9.988;2022-12-18T09:21:50;-5.00;1.00
16388;DHT22;8303;53.446;9.988;2022-12-18T09:24:18;-4.90;1.00
16388;DHT22;8303;53.446;9.988;2022-12-18T09:26:45;-4.80;1.00
16388;DHT22;8303;53.446;9.988;2022-12-18T09:29:12;-4.70;1.00
16388;DHT22;8303;53.446;9.988;2022-12-18T09:31:39;-4.60;1.00
16388;DHT22;8303;53.446;9.988;2022-12-18T09:34:06;-4.50;1.00
16388;DHT22;8303;53.446;9.988;2022-12-18T09:36:32;-4.40;1.00
16388;DHT22;8303;53.446;9.988;2022-12-18T09:38:59;-4.20;1.00
16388;DHT22;8303;53.446;9.988;2022-12-18T09:41:39;-4.10;1.00
16388;DHT22;8303;53.446;9.988;2022-12-18T09:44:17;-4.00;1.00
16388;DHT22;8303;53.446;9.988;2022-12-18T09:46:47;-3.80;1.00
16388;DHT22;8303;53.446;9.988;2022-12-18T09:49:18;-3.70;1.00
16388;DHT22;8303;53.446;9.988;2022-12-18T09:51:50;-3.60;1.00
16388;DHT22;8303;53.446;9.988;2022-12-18T09:54:22;-3.50;1.00
16388;DHT22;8303;53.446;9.988;2022-12-18T09:56:52;-3.40;1.00
16388;DHT22;8303;53.446;9.988;2022-12-18T09:59:23;-3.40;1.00
16388;DHT22;8303;53.446;9.988;2022-12-18T10:01:50;-3.30;1.00
16388;DHT22;8303;53.446;9.988;2022-12-18T10:04:17;-3.30;1.00
16388;DHT22;8303;53.446;9.988;2022-12-18T10:06:49;-3.30;1.00
16388;DHT22;8303;53.446;9.988;2022-12-18T10:09:27;-3.40;1.00
16388;DHT22;8303;53.446;9.988;2022-12-18T10:12:02;-3.40;1.00
16388;DHT22;8303;53.446;9.988;2022-12-18T10:14:35;-3.30;1.00
16388;DHT22;8303;53.446;9.988;2022-12-18T10:17:11;-3.40;1.00
16388;DHT22;8303;53.446;9.988;2022-12-18T10:19:42;-3.40;1.00
16388;DHT22;8303;53.446;9.988;2022-12-18T10:22:26;-3.40;1.00
16388;DHT22;8303;53.446;9.988;2022-12-18T10:24:59;-3.30;1.00
16388;DHT22;8303;53.446;9.988;2022-12-18T10:27:30;-3.30;1.00
16388;DHT22;8303;53.446;9.988;2022-12-18T10:29:57;-3.30;1.00
16388;DHT22;8303;53.446;9.988;2022-12-18T10:32:26;-3.20;1.00
16388;DHT22;8303;53.446;9.988;2022-12-18T10:34:55;-3.20;1.00
16388;DHT22;8303;53.446;9.988;2022-12-18T10:37:25;-3.00;1.00
16388;DHT22;8303;53.446;9.988;2022-12-18T10:40:10;-2.90;1.00
16388;DHT22;8303;53.446;9.988;2022-12-18T10:42:39;-2.90;1.00
16388;DHT22;8303;53.446;9.988;2022-12-18T10:45:10;-2.80;1.00
16388;DHT22;8303;53.446;9.988;2022-12-18T10:47:42;-2.80;1.00
16388;DHT22;8303;53.446;9.988;2022-12-18T10:50:19;-2.70;1.00
16388;DHT22;8303;53.446;9.988;2022-12-18T10:52:54;-2.70;1.00
16388;DHT22;8303;53.446;9.988;2022-12-18T10:55:21;-2.50;1.00
16388;DHT22;8303;53.446;9.988;2022-12-18T10:57:51;-2.50;1.00
16388;DHT22;8303;53.446;9.988;2022-12-18T11:00:24;-2.50;1.00
16388;DHT22;8303;53.446;9.988;2022-12-18T11:02:52;-2.50;1.00
16388;DHT22;8303;53.446;9.988;2022-12-18T11:05:27;-2.50;1.00
16388;DHT22;8303;53.446;9.988;2022-12-18T11:07:55;-2.40;1.00
16388;DHT22;8303;53.446;9.988;2022-12-18T11:10:26;-2.40;1.00
16388;DHT22;8303;53.446;9.988;2022-12-18T11:12:56;-2.30;1.00
16388;DHT22;8303;53.446;9.988;2022-12-18T11:15:35;-2.30;1.00
16388;DHT22;8303;53.446;9.988;2022-12-18T11:18:02;-2.20;1.00
16388;DHT22;8303;53.446;9.988;2022-12-18T11:20:31;-2.20;1.00
16388;DHT22;8303;53.446;9.988;2022-12-18T11:23:00;-2.20;1.00
16388;DHT22;8303;53.446;9.988;2022-12-18T11:25:27;-2.10;1.00
16388;DHT22;8303;53.446;9.988;2022-12-18T11:27:58;-2.10;1.00
16388;DHT22;8303;53.446;9.988;2022-12-18T11:30:27;-2.10;1.00
16388;DHT22;8303;53.446;9.988;2022-12-18T11:32:58;-2.00;1.00
16388;DHT22;8303;53.446;9.988;2022-12-18T11:35:41;-2.00;1.00
16388;DHT22;8303;53.446;9.988;2022-12-18T11:38:18;-2.00;1.00
16388;DHT22;8303;53.446;9.988;2022-12-18T11:40:53;-2.00;1.00
16388;DHT22;8303;53.446;9.988;2022-12-18T11:43:27;-2.00;1.00
16388;DHT22;8303;53.446;9.988;2022-12-18T11:45:58;-2.00;1.00
16388;DHT22;8303;53.446;9.988;2022-12-18T11:48:29;-2.00;1.00
16388;DHT22;8303;53.446;9.988;2022-12-18T11:50:58;-2.10;1.00
16388;DHT22;8303;53.446;9.988;2022-12-18T11:53:26;-2.00;1.00
16388;DHT22;8303;53.446;9.988;2022-12-18T11:56:04;-2.00;1.00
16388;DHT22;8303;53.446;9.988;2022-12-18T11:58:44;-2.00;1.00
16388;DHT22;8303;53.446;9.988;2022-12-18T12:01:24;-2.00;1.00
16388;DHT22;8303;53.446;9.988;2022-12-18T12:04:16;-2.10;1.00
16388;DHT22;8303;53.446;9.988;2022-12-18T12:06:54;-2.10;1.00
16388;DHT22;8303;53.446;9.988;2022-12-18T12:09:27;-2.10;1.00
16388;DHT22;8303;53.446;9.988;2022-12-18T12:12:05;-2.00;1.00
16388;DHT22;8303;53.446;9.988;2022-12-18T12:14:48;-1.90;1.00
16388;DHT22;8303;53.446;9.988;2022-12-18T12:17:24;-1.80;1.00
16388;DHT22;8303;53.446;9.988;2022-12-18T12:20:02;-1.80;1.00
16388;DHT22;8303;53.446;9.988;2022-12-18T12:22:38;-1.80;1.00
16388;DHT22;8303;53.446;9.988;2022-12-18T12:25:20;-1.70;1.00
16388;DHT22;8303;53.446;9.988;2022-12-18T12:27:54;-1.60;1.00
16388;DHT22;8303;53.446;9.988;2022-12-18T12:30:32;-1.60;1.00
16388;DHT22;8303;53.446;9.988;2022-12-18T12:33:11;-1.50;1.00
16388;DHT22;8303;53.446;9.988;2022-12-18T12:35:48;-1.50;1.00
16388;DHT22;8303;53.446;9.988;2022-12-18T12:38:19;-1.60;1.00
16388;DHT22;8303;53.446;9.988;2022-12-18T12:40:51;-1.70;1.00
16388;DHT22;8303;53.446;9.988;2022-12-18T12:43:27;-1.80;1.00
16388;DHT22;8303;53.446;9.988;2022-12-18T12:45:57;-2.00;1.00
16388;DHT22;8303;53.446;9.988;2022-12-18T12:48:35;-2.00;1.00
16388;DHT22;8303;53.446;9.988;2022-12-18T12:51:09;-2.00;1.00
16388;DHT22;8303;53.446;9.988;2022-12-18T12:53:38;-2.00;1.00
16388;DHT22;8303;53.446;9.988;2022-12-18T12:56:09;-2.00;1.00
16388;DHT22;8303;53.446;9.988;2022-12-18T12:58:45;-2.10;1.00
16388;DHT22;8303;53.446;9.988;2022-12-18T13:01:22;-2.10;1.00
16388;DHT22;8303;53.446;9.988;2022-12-18T13:03:59;-2.10;1.00
16388;DHT22;8303;53.446;9.988;2022-12-18T13:06:40;-2.10;1.00
16388;DHT22;8303;53.446;9.988;2022-12-18T13:09:08;-2.10;1.00
16388;DHT22;8303;53.446;9.988;2022-12-18T13:11:38;-2.10;1.00
16388;DHT22;8303;53.446;9.988;2022-12-18T13:14:26;-2.10;1.00
16388;DHT22;8303;53.446;9.988;2022-12-18T13:17:16;-2.00;1.00
16388;DHT22;8303;53.446;9.988;2022-12-18T13:19:50;-2.00;1.00
16388;DHT22;8303;53.446;9.988;2022-12-18T13:22:21;-2.20;1.00
16388;DHT22;8303;53.446;9.988;2022-12-18T13:24:49;-2.20;1.00
16388;DHT22;8303;53.446;9.988;2022-12-18T13:27:54;-2.30;1.00
16388;DHT22;8303;53.446;9.988;2022-12-18T13:30:56;-2.40;1.00
16388;DHT22;8303;53.446;9.988;2022-12-18T13:33:41;-2.50;1.00
16388;DHT22;8303;53.446;9.988;2022-12-18T13:36:32;-2.50;1.00
16388;DHT22;8303;53.446;9.988;2022-12-18T13:39:23;-2.50;1.00
16388;DHT22;8303;53.446;9.988;2022-12-18T13:41:52;-2.60;1.00
16388;DHT22;8303;53.446;9.988;2022-12-18T13:44:28;-2.70;1.00
16388;DHT22;8303;53.446;9.988;2022-12-18T13:46:57;-2.60;1.00
16388;DHT22;8303;53.446;9.988;2022-12-18T13:49:31;-2.70;1.00
16388;DHT22;8303;53.446;9.988;2022-12-18T13:52:03;-2.70;1.00
16388;DHT22;8303;53.446;9.988;2022-12-18T13:54:42;-2.70;1.00
16388;DHT22;8303;53.446;9.988;2022-12-18T13:57:26;-2.80;1.00
16388;DHT22;8303;53.446;9.988;2022-12-18T13:59:54;-2.80;1.00
16388;DHT22;8303;53.446;9.988;2022-12-18T14:02:23;-2.90;1.00
16388;DHT22;8303;53.446;9.988;2022-12-18T14:04:52;-2.90;1.00
16388;DHT22;8303;53.446;9.988;2022-12-18T14:07:23;-2.90;1.00
16388;DHT22;8303;53.446;9.988;2022-12-18T14:09:52;-2.90;1.00
16388;DHT22;8303;53.446;9.988;2022-12-18T14:12:22;-3.00;1.00
16388;DHT22;8303;53.446;9.988;2022-12-18T14:15:15;-2.90;1.00
16388;DHT22;8303;53.446;9.988;2022-12-18T14:17:47;-3.00;1.00
16388;DHT22;8303;53.446;9.988;2022-12-18T14:20:17;-3.10;1.00
16388;DHT22;8303;53.446;9.988;2022-12-18T14:22:45;-3.10;1.00
16388;DHT22;8303;53.446;9.988;2022-12-18T14:25:18;-3.10;1.00
16388;DHT22;8303;53.446;9.988;2022-12-18T14:27:47;-3.10;1.00
16388;DHT22;8303;53.446;9.988;2022-12-18T14:30:25;-3.20;1.00
16388;DHT22;8303;53.446;9.988;2022-12-18T14:33:00;-3.20;1.00
16388;DHT22;8303;53.446;9.988;2022-12-18T14:35:28;-3.30;1.00
16388;DHT22;8303;53.446;9.988;2022-12-18T14:38:09;-3.40;1.00
16388;DHT22;8303;53.446;9.988;2022-12-18T14:40:39;-3.40;1.00
16388;DHT22;8303;53.446;9.988;2022-12-18T14:43:08;-3.40;1.00
16388;DHT22;8303;53.446;9.988;2022-12-18T14:45:36;-3.40;1.00
16388;DHT22;8303;53.446;9.988;2022-12-18T14:48:08;-3.50;1.00
16388;DHT22;8303;53.446;9.988;2022-12-18T14:50:36;-3.50;1.00
16388;DHT22;8303;53.446;9.988;2022-12-18T14:53:03;-3.50;1.00
16388;DHT22;8303;53.446;9.988;2022-12-18T14:55:30;-3.60;1.00
16388;DHT22;8303;53.446;9.988;2022-12-18T14:57:57;-3.60;1.00
16388;DHT22;8303;53.446;9.988;2022-12-18T15:00:25;-3.70;1.00
16388;DHT22;8303;53.446;9.988;2022-12-18T15:02:54;-3.70;1.00
16388;DHT22;8303;53.446;9.988;2022-12-18T15:05:25;-3.80;1.00
16388;DHT22;8303;53.446;9.988;2022-12-18T15:07:55;-3.80;1.00
16388;DHT22;8303;53.446;9.988;2022-12-18T15:10:24;-3.90;1.00
16388;DHT22;8303;53.446;9.988;2022-12-18T15:13:08;-4.00;1.00
16388;DHT22;8303;53.446;9.988;2022-12-18T15:15:45;-4.00;1.00
16388;DHT22;8303;53.446;9.988;2022-12-18T15:18:14;-4.00;1.00
16388;DHT22;8303;53.446;9.988;2022-12-18T15:20:44;-4.10;1.00
16388;DHT22;8303;53.446;9.988;2022-12-18T15:23:18;-4.10;1.00
16388;DHT22;8303;53.446;9.988;2022-12-18T15:25:46;-4.10;1.00
16388;DHT22;8303;53.446;9.988;2022-12-18T15:28:21;-4.10;1.00
16388;DHT22;8303;53.446;9.988;2022-12-18T15:31:03;-4.10;1.00
16388;DHT22;8303;53.446;9.988;2022-12-18T15:33:33;-4.10;1.00
16388;DHT22;8303;53.446;9.988;2022-12-18T15:36:03;-4.10;1.00
16388;DHT22;8303;53.446;9.988;2022-12-18T15:38:32;-4.10;1.00
16388;DHT22;8303;53.446;9.988;2022-12-18T15:40:59;-4.00;1.00
16388;DHT22;8303;53.446;9.988;2022-12-18T15:43:26;-3.90;1.00
16388;DHT22;8303;53.446;9.988;2022-12-18T15:46:03;-3.90;1.00
16388;DHT22;8303;53.446;9.988;2022-12-18T15:48:32;-3.90;1.00
16388;DHT22;8303;53.446;9.988;2022-12-18T15:50:59;-3.90;1.00
16388;DHT22;8303;53.446;9.988;2022-12-18T15:53:30;-3.80;1.00
16388;DHT22;8303;53.446;9.988;2022-12-18T15:55:59;-3.80;1.00
16388;DHT22;8303;53.446;9.988;2022-12-18T15:58:43;-3.80;1.00
16388;DHT22;8303;53.446;9.988;2022-12-18T16:01:10;-3.80;1.00
16388;DHT22;8303;53.446;9.988;2022-12-18T16:06:03;-3.80;1.00
16388;DHT22;8303;53.446;9.988;2022-12-18T16:08:30;-3.80;1.00
16388;DHT22;8303;53.446;9.988;2022-12-18T16:10:59;-3.80;1.00
16388;DHT22;8303;53.446;9.988;2022-12-18T16:13:26;-3.70;1.00
16388;DHT22;8303;53.446;9.988;2022-12-18T16:15:53;-3.70;1.00
16388;DHT22;8303;53.446;9.988;2022-12-18T16:18:20;-3.70;1.00
16388;DHT22;8303;53.446;9.988;2022-12-18T16:20:47;-3.70;1.00